Terminal Aerodrome Forecast
Issued by NWS

Home | Current Version | Previous Version | Graphics & Text | Print | Product List | Glossary On
Versions: 1 2 3 4 5 6 7 8 9 10 11 12 13 14 15 16 17 18
000
FTUS43 KGRB 251700
TAFCWA
TAF
KCWA 251735Z 2518/2618 22008G16KT P6SM OVC010
     FM260100 00000KT 6SM BR SCT012 BKN100
     FM260400 11003KT 5SM BR OVC007
     FM261000 VRB03KT 4SM BR OVC005
     FM261600 01004KT 5SM BR OVC008=

USA.gov is the U.S. government's official web portal to all federal, state and local government web resources and services.